Time;durP1;ratioP1;P1;durP2;ratioP2;P2;SDS_P1;SDS_P2;PMS_P1;PMS_P2;Temp;Humidity;BMP_temperature;BMP_pressure;BME280_temperature;BME280_humidity;BME280_pressure;Samples;Min_cycle;Max_cycle;Signal;HPM_P1;HPM_P2
2023/07/02 00:01:56;;;;;;;6.75;5.05;;;16.70;99.40;;;;;;5088760;28;20421;-71
2023/07/02 00:04:23;;;;;;;5.22;3.75;;;16.70;99.30;;;;;;5088281;28;20416;-70
2023/07/02 00:06:50;;;;;;;4.18;3.10;;;16.70;98.40;;;;;;5079693;28;20427;-70
2023/07/02 00:09:17;;;;;;;6.00;3.97;;;16.70;98.30;;;;;;5082513;28;20867;-71
2023/07/02 00:11:46;;;;;;;5.80;4.07;;;16.80;98.30;;;;;;5078700;28;20435;-70
2023/07/02 00:14:14;;;;;;;5.25;3.72;;;16.70;97.80;;;;;;5073930;28;20428;-71
2023/07/02 00:16:43;;;;;;;6.80;5.50;;;16.70;97.80;;;;;;5076390;28;20467;-70
2023/07/02 00:19:10;;;;;;;7.10;6.05;;;16.80;97.30;;;;;;5087221;28;20421;-71
2023/07/02 00:21:37;;;;;;;7.07;5.70;;;16.80;97.40;;;;;;5088446;28;20465;-70
2023/07/02 00:24:04;;;;;;;5.47;3.97;;;16.80;97.20;;;;;;5086500;28;20421;-71
2023/07/02 00:26:31;;;;;;;6.55;4.10;;;16.80;97.20;;;;;;5077890;28;20446;-70
2023/07/02 00:28:59;;;;;;;5.25;4.75;;;16.80;97.10;;;;;;5085725;28;20414;-70
2023/07/02 00:31:26;;;;;;;5.78;3.60;;;16.80;97.20;;;;;;5079027;28;20914;-71
2023/07/02 00:33:52;;;;;;;6.53;3.60;;;16.70;97.20;;;;;;5068168;28;20431;-71
2023/07/02 00:36:19;;;;;;;4.75;3.70;;;16.70;97.30;;;;;;5075033;28;20915;-71
2023/07/02 00:38:47;;;;;;;5.75;3.38;;;16.70;97.20;;;;;;5086523;28;20442;-70
2023/07/02 00:41:14;;;;;;;4.80;3.30;;;16.70;96.90;;;;;;5082098;28;20440;-70
2023/07/02 00:43:43;;;;;;;3.97;3.20;;;16.70;97.00;;;;;;5078303;28;20524;-71
2023/07/02 00:46:14;;;;;;;5.00;3.80;;;16.60;97.10;;;;;;5119701;22;20806;-69
2023/07/02 00:48:41;;;;;;;5.22;3.78;;;16.60;97.00;;;;;;5103832;28;20437;-69
2023/07/02 00:51:09;;;;;;;7.70;3.67;;;16.60;96.80;;;;;;5103890;28;20431;-69
2023/07/02 00:53:36;;;;;;;8.20;3.60;;;16.60;97.00;;;;;;5120499;27;20422;-70
2023/07/02 00:56:03;;;;;;;5.57;3.67;;;16.60;97.30;;;;;;5094190;27;20437;-69
2023/07/02 00:58:29;;;;;;;5.82;3.70;;;16.50;97.00;;;;;;5093311;28;20890;-68
2023/07/02 01:00:57;;;;;;;5.43;4.00;;;16.50;96.80;;;;;;5097442;28;20947;-69
2023/07/02 01:03:25;;;;;;;5.57;4.10;;;16.50;96.40;;;;;;5094673;28;20923;-68
2023/07/02 01:05:51;;;;;;;6.35;3.80;;;16.50;95.40;;;;;;5086188;28;20450;-68
2023/07/02 01:08:18;;;;;;;4.43;3.90;;;16.50;95.70;;;;;;5086883;28;20423;-68
2023/07/02 01:10:45;;;;;;;5.00;4.00;;;16.50;95.50;;;;;;5083758;28;20443;-69
2023/07/02 01:13:17;;;;;;;5.47;4.03;;;16.50;95.40;;;;;;5097000;28;20448;-69
2023/07/02 01:15:46;;;;;;;6.47;4.45;;;16.40;95.00;;;;;;5091890;28;20915;-69
2023/07/02 01:18:14;;;;;;;7.03;4.60;;;16.50;94.80;;;;;;5097506;28;20922;-69
2023/07/02 01:20:43;;;;;;;6.30;4.40;;;16.40;94.90;;;;;;5084226;28;20517;-68
2023/07/02 01:23:10;;;;;;;6.22;4.85;;;16.40;94.40;;;;;;5094917;28;20759;-69
2023/07/02 01:25:37;;;;;;;7.45;4.97;;;16.40;93.90;;;;;;5081753;28;20477;-69
2023/07/02 01:28:04;;;;;;;7.15;4.95;;;16.40;93.80;;;;;;5095437;28;20500;-69
2023/07/02 01:30:30;;;;;;;6.72;4.72;;;16.40;93.70;;;;;;5100795;28;20413;-69
2023/07/02 01:32:57;;;;;;;9.23;5.45;;;16.40;93.60;;;;;;5090026;28;20447;-71
2023/07/02 01:35:24;;;;;;;9.70;5.97;;;16.40;93.40;;;;;;5087473;28;20900;-69
2023/07/02 01:37:53;;;;;;;10.00;5.88;;;16.40;93.30;;;;;;5104711;28;21000;-70
2023/07/02 01:40:20;;;;;;;10.60;6.50;;;16.40;93.30;;;;;;5083400;28;20517;-69
2023/07/02 01:42:46;;;;;;;9.50;6.63;;;16.30;93.40;;;;;;5078637;28;20757;-69
2023/07/02 01:45:13;;;;;;;10.37;7.00;;;16.30;93.40;;;;;;5083701;28;20515;-68
2023/07/02 01:47:40;;;;;;;12.18;6.75;;;16.30;93.00;;;;;;5105868;28;20419;-68
2023/07/02 01:50:07;;;;;;;9.07;6.80;;;16.30;92.80;;;;;;5102966;28;20415;-68
2023/07/02 01:52:34;;;;;;;9.25;7.00;;;16.30;92.90;;;;;;5092054;28;20433;-68
2023/07/02 01:55:03;;;;;;;10.90;7.47;;;16.30;93.00;;;;;;5085418;28;20441;-68
2023/07/02 01:57:30;;;;;;;9.30;7.03;;;16.30;92.70;;;;;;5086454;28;20452;-68
2023/07/02 01:59:57;;;;;;;10.80;8.10;;;16.20;92.80;;;;;;5092497;28;21056;-71
2023/07/02 02:02:24;;;;;;;8.48;6.85;;;16.20;92.60;;;;;;5088785;28;20430;-68
2023/07/02 02:04:51;;;;;;;10.43;7.63;;;16.20;92.90;;;;;;5089714;28;21048;-70
2023/07/02 02:07:18;;;;;;;10.50;8.02;;;16.20;92.50;;;;;;5100633;28;20435;-68
2023/07/02 02:09:44;;;;;;;10.77;7.90;;;16.20;92.60;;;;;;5091849;28;20509;-68
2023/07/02 02:12:14;;;;;;;11.00;8.10;;;16.20;92.80;;;;;;5086928;28;20507;-68
2023/07/02 02:14:40;;;;;;;10.48;8.40;;;16.20;92.50;;;;;;5101894;28;20435;-68
2023/07/02 02:17:07;;;;;;;11.18;7.93;;;16.20;92.60;;;;;;5081025;28;20509;-68
2023/07/02 02:19:34;;;;;;;12.63;8.40;;;16.10;92.90;;;;;;5095301;28;20434;-69
2023/07/02 02:22:01;;;;;;;10.95;8.75;;;16.10;92.70;;;;;;5104230;28;20438;-69
2023/07/02 02:24:27;;;;;;;12.55;9.30;;;16.20;92.50;;;;;;5094246;28;20420;-69
2023/07/02 02:26:54;;;;;;;12.52;8.82;;;16.10;92.80;;;;;;5081411;28;20541;-69
2023/07/02 02:29:22;;;;;;;13.57;9.20;;;16.10;92.50;;;;;;5103949;28;20484;-68
2023/07/02 02:31:49;;;;;;;10.23;8.80;;;16.10;93.00;;;;;;5088722;28;20441;-69
2023/07/02 02:34:15;;;;;;;13.40;9.57;;;16.10;92.70;;;;;;5081589;28;20431;-68
2023/07/02 02:36:42;;;;;;;12.32;8.90;;;16.10;92.70;;;;;;5090213;28;20496;-69
2023/07/02 02:39:09;;;;;;;13.13;9.18;;;16.00;92.90;;;;;;5101142;28;20510;-69
2023/07/02 02:41:36;;;;;;;12.82;9.70;;;16.00;92.50;;;;;;5083749;28;20428;-68
2023/07/02 02:44:02;;;;;;;15.68;9.90;;;16.10;92.70;;;;;;5083726;28;20438;-68
2023/07/02 02:46:31;;;;;;;12.90;9.87;;;16.10;92.70;;;;;;5097961;28;20416;-68
2023/07/02 02:48:58;;;;;;;13.45;9.77;;;16.00;92.70;;;;;;5092094;28;20425;-68
2023/07/02 02:51:25;;;;;;;14.30;9.35;;;16.10;92.60;;;;;;5089576;28;20420;-68
2023/07/02 02:53:51;;;;;;;12.13;9.80;;;16.10;92.40;;;;;;5102665;28;20424;-68
2023/07/02 02:56:18;;;;;;;13.30;10.00;;;16.00;92.20;;;;;;5082618;28;20433;-69
2023/07/02 02:58:45;;;;;;;15.10;10.18;;;16.10;92.40;;;;;;5083919;28;20449;-68
2023/07/02 03:01:12;;;;;;;13.50;9.70;;;16.00;92.40;;;;;;5103734;28;20495;-69
2023/07/02 03:03:45;;;;;;;14.23;10.02;;;16.00;92.40;;;;;;5092763;28;20406;-68
2023/07/02 03:06:12;;;;;;;14.73;10.20;;;16.00;92.50;;;;;;5080375;28;20531;-68
2023/07/02 03:08:40;;;;;;;12.20;10.18;;;16.00;92.60;;;;;;5088234;28;20436;-69
2023/07/02 03:11:06;;;;;;;12.77;10.32;;;16.00;92.50;;;;;;5086259;28;20429;-69
2023/07/02 03:13:33;;;;;;;14.88;10.30;;;15.90;92.60;;;;;;5087118;28;20465;-69
2023/07/02 03:16:00;;;;;;;12.18;10.25;;;15.90;92.70;;;;;;5093139;28;20582;-70
2023/07/02 03:18:27;;;;;;;14.43;10.57;;;15.90;92.60;;;;;;5090645;28;20515;-70
2023/07/02 03:20:55;;;;;;;14.77;11.50;;;15.90;92.70;;;;;;5089568;28;20419;-70
2023/07/02 03:23:21;;;;;;;13.55;10.07;;;15.90;92.90;;;;;;5091188;28;20520;-70
2023/07/02 03:25:48;;;;;;;15.02;11.23;;;15.80;92.90;;;;;;5076640;28;20528;-69
2023/07/02 03:28:15;;;;;;;13.23;10.60;;;15.80;93.10;;;;;;5095130;28;20425;-69
2023/07/02 03:30:41;;;;;;;15.25;11.50;;;15.80;93.10;;;;;;5068514;28;20860;-69
2023/07/02 03:33:09;;;;;;;14.57;11.20;;;15.80;93.30;;;;;;5096032;28;20431;-69
2023/07/02 03:35:36;;;;;;;15.25;11.13;;;15.80;93.30;;;;;;5098862;28;20422;-72
2023/07/02 03:38:05;;;;;;;14.25;10.80;;;15.80;93.30;;;;;;5082028;28;20496;-70
2023/07/02 03:40:32;;;;;;;16.30;10.63;;;15.80;93.20;;;;;;5085975;28;20428;-69
2023/07/02 03:42:59;;;;;;;14.00;11.20;;;15.80;93.30;;;;;;5084307;28;20505;-69
2023/07/02 03:45:25;;;;;;;15.68;11.68;;;15.80;93.30;;;;;;5096411;28;20432;-69
2023/07/02 03:47:52;;;;;;;15.20;11.73;;;15.70;93.30;;;;;;5082472;28;20529;-70
2023/07/02 03:50:19;;;;;;;15.82;12.27;;;15.70;93.30;;;;;;5096348;28;20445;-69
2023/07/02 03:52:46;;;;;;;16.60;12.40;;;15.80;93.20;;;;;;5099315;28;20512;-70
2023/07/02 03:55:14;;;;;;;18.70;12.55;;;15.80;93.40;;;;;;5082986;28;20423;-69
2023/07/02 03:57:41;;;;;;;16.55;12.65;;;15.80;93.50;;;;;;5085543;28;20908;-68
2023/07/02 04:00:11;;;;;;;17.75;11.40;;;15.80;93.60;;;;;;5081934;28;20414;-69
2023/07/02 04:02:37;;;;;;;15.93;12.80;;;15.80;93.40;;;;;;5098326;28;20868;-69
2023/07/02 04:05:05;;;;;;;15.95;12.10;;;15.80;93.20;;;;;;5092779;28;20437;-69
2023/07/02 04:07:31;;;;;;;17.90;13.18;;;15.80;93.20;;;;;;5081861;28;20414;-69
2023/07/02 04:09:58;;;;;;;15.70;13.20;;;15.80;93.30;;;;;;5081775;28;20429;-69
2023/07/02 04:12:26;;;;;;;18.95;14.10;;;15.80;93.30;;;;;;5078788;28;20420;-69
2023/07/02 04:14:53;;;;;;;17.08;12.82;;;15.90;93.20;;;;;;5092527;28;20905;-69
2023/07/02 04:17:20;;;;;;;17.15;13.32;;;15.90;93.20;;;;;;5084767;28;20454;-70
2023/07/02 04:19:46;;;;;;;20.67;13.20;;;15.90;93.20;;;;;;5093472;28;20435;-69
2023/07/02 04:22:13;;;;;;;17.42;13.30;;;15.90;93.10;;;;;;5101330;28;20531;-72
2023/07/02 04:24:40;;;;;;;18.70;13.95;;;15.90;93.20;;;;;;5089021;28;20429;-69
2023/07/02 04:27:06;;;;;;;17.75;13.35;;;15.90;93.20;;;;;;5093772;28;20536;-70
2023/07/02 04:29:34;;;;;;;20.05;14.57;;;15.90;93.30;;;;;;5086602;28;20432;-70
2023/07/02 04:32:01;;;;;;;18.33;13.88;;;16.00;93.30;;;;;;5098480;28;20452;-70
2023/07/02 04:34:28;;;;;;;16.45;14.13;;;16.00;93.10;;;;;;5086308;28;20434;-69
2023/07/02 04:36:55;;;;;;;18.95;13.77;;;16.00;93.00;;;;;;5095120;28;20419;-70
2023/07/02 04:39:21;;;;;;;18.00;13.90;;;16.10;93.00;;;;;;5091893;28;20427;-70
2023/07/02 04:41:52;;;;;;;16.80;13.90;;;16.00;92.70;;;;;;5086509;28;20421;-70
2023/07/02 04:44:20;;;;;;;17.63;14.68;;;16.10;93.00;;;;;;5086008;28;20849;-70
2023/07/02 04:46:48;;;;;;;19.92;15.10;;;16.00;93.00;;;;;;5083606;28;20922;-70
2023/07/02 04:49:15;;;;;;;20.63;14.38;;;16.10;93.00;;;;;;5085182;28;20414;-70
2023/07/02 04:51:42;;;;;;;19.33;14.75;;;16.10;93.00;;;;;;5083435;28;20485;-70
2023/07/02 04:54:09;;;;;;;20.10;14.98;;;16.10;93.10;;;;;;5083611;28;20421;-69
2023/07/02 04:56:36;;;;;;;20.83;14.35;;;16.10;93.00;;;;;;5078594;28;20427;-69
2023/07/02 04:59:02;;;;;;;19.20;14.60;;;16.20;93.10;;;;;;5085972;28;20410;-69
2023/07/02 05:01:29;;;;;;;20.92;14.98;;;16.20;93.30;;;;;;5086192;28;20521;-72
2023/07/02 05:03:57;;;;;;;22.08;16.17;;;16.20;93.10;;;;;;5081721;28;20467;-72
2023/07/02 05:06:24;;;;;;;20.25;15.45;;;16.10;93.30;;;;;;5086819;28;20479;-69
2023/07/02 05:08:52;;;;;;;19.30;15.60;;;16.20;93.20;;;;;;5086032;28;20426;-70
2023/07/02 05:11:19;;;;;;;20.45;15.55;;;16.20;93.10;;;;;;5085147;28;20417;-71
2023/07/02 05:13:46;;;;;;;20.27;15.20;;;16.30;93.10;;;;;;5072419;28;20750;-71
2023/07/02 05:16:13;;;;;;;18.52;15.05;;;16.30;93.10;;;;;;5087503;28;20422;-71
2023/07/02 05:18:40;;;;;;;20.10;16.42;;;16.30;92.90;;;;;;5085484;28;20595;-72
2023/07/02 05:21:08;;;;;;;23.15;17.10;;;16.30;92.90;;;;;;5092318;28;20456;-69
2023/07/02 05:23:35;;;;;;;22.40;16.77;;;16.30;93.00;;;;;;5081660;28;20430;-71
2023/07/02 05:26:02;;;;;;;21.75;16.38;;;16.30;92.90;;;;;;5082542;28;20444;-71
2023/07/02 05:28:28;;;;;;;23.10;17.33;;;16.40;93.00;;;;;;5086710;28;20430;-72
2023/07/02 05:30:55;;;;;;;22.05;16.45;;;16.40;93.00;;;;;;5092710;28;20428;-71
2023/07/02 05:33:22;;;;;;;19.17;16.40;;;16.30;93.00;;;;;;5097241;28;20504;-71
2023/07/02 05:35:49;;;;;;;22.00;16.20;;;16.40;93.30;;;;;;5086785;28;20457;-70
2023/07/02 05:38:18;;;;;;;23.63;17.20;;;16.40;93.10;;;;;;5097391;28;20845;-74
2023/07/02 05:40:45;;;;;;;19.10;16.33;;;16.40;93.10;;;;;;5080793;28;20436;-71
2023/07/02 05:43:12;;;;;;;22.05;17.17;;;16.40;93.10;;;;;;5084421;28;20455;-71
2023/07/02 05:45:39;;;;;;;25.48;17.98;;;16.40;93.40;;;;;;5084946;28;20410;-71
2023/07/02 05:48:06;;;;;;;22.67;17.20;;;16.40;93.30;;;;;;5086520;28;20421;-70
2023/07/02 05:50:32;;;;;;;21.55;17.00;;;16.50;93.20;;;;;;5080650;28;20426;-71
2023/07/02 05:52:59;;;;;;;23.50;17.17;;;16.50;93.10;;;;;;5088379;28;20514;-71
2023/07/02 05:55:27;;;;;;;25.00;17.38;;;16.50;93.10;;;;;;5085052;28;20915;-71
2023/07/02 05:57:54;;;;;;;22.90;18.27;;;16.60;92.80;;;;;;5083163;28;20825;-71
2023/07/02 06:00:21;;;;;;;22.83;17.15;;;16.70;92.40;;;;;;5087954;28;20456;-70
2023/07/02 06:02:48;;;;;;;20.77;16.52;;;16.70;92.40;;;;;;5087746;28;20437;-71
2023/07/02 06:05:15;;;;;;;23.65;17.77;;;16.70;92.50;;;;;;5086956;28;20532;-71
2023/07/02 06:07:41;;;;;;;20.00;17.00;;;16.70;92.50;;;;;;5100239;28;20423;-71
2023/07/02 06:10:09;;;;;;;23.58;16.70;;;16.80;92.40;;;;;;5079030;28;20427;-71
2023/07/02 06:12:37;;;;;;;22.88;17.23;;;16.80;92.20;;;;;;5088542;28;20773;-71
2023/07/02 06:15:04;;;;;;;23.33;17.05;;;16.80;92.20;;;;;;5077391;28;20917;-71
2023/07/02 06:17:31;;;;;;;21.60;17.13;;;16.70;92.40;;;;;;5086617;28;20455;-71
2023/07/02 06:19:58;;;;;;;22.58;17.40;;;16.80;92.60;;;;;;5095698;28;20441;-70
2023/07/02 06:22:25;;;;;;;20.30;16.85;;;16.80;92.40;;;;;;5085423;28;20418;-71
2023/07/02 06:24:51;;;;;;;22.67;18.55;;;17.00;92.30;;;;;;5084317;28;20532;-71
2023/07/02 06:27:18;;;;;;;22.50;16.35;;;17.10;92.00;;;;;;5080732;28;20426;-71
2023/07/02 06:29:46;;;;;;;21.67;16.83;;;17.20;90.90;;;;;;5088794;28;20494;-71
2023/07/02 06:32:13;;;;;;;19.58;16.08;;;17.30;90.20;;;;;;5091264;28;20412;-71
2023/07/02 06:34:39;;;;;;;22.83;16.55;;;17.40;90.10;;;;;;5098090;28;20443;-71
2023/07/02 06:37:06;;;;;;;19.00;15.50;;;17.50;89.30;;;;;;5093126;28;20414;-71
2023/07/02 06:39:33;;;;;;;19.15;15.68;;;17.60;87.60;;;;;;5075594;28;20431;-71
2023/07/02 06:42:00;;;;;;;20.70;15.20;;;17.70;86.50;;;;;;5090480;28;20952;-71
2023/07/02 06:44:27;;;;;;;18.65;14.55;;;17.70;82.70;;;;;;5090318;28;20414;-70
2023/07/02 06:46:55;;;;;;;18.13;14.48;;;17.80;82.30;;;;;;5121160;22;20418;-70
2023/07/02 06:49:22;;;;;;;20.75;16.25;;;17.80;82.80;;;;;;5084263;28;20437;-70
2023/07/02 06:51:49;;;;;;;18.50;15.15;;;17.80;83.50;;;;;;5081541;28;20430;-71
2023/07/02 06:54:15;;;;;;;19.35;15.57;;;17.90;83.90;;;;;;5088862;28;20422;-71
2023/07/02 06:56:42;;;;;;;20.83;16.20;;;17.90;82.80;;;;;;5089658;28;20439;-70
2023/07/02 06:59:09;;;;;;;22.55;16.50;;;17.90;82.90;;;;;;5082757;28;20415;-70
2023/07/02 07:01:36;;;;;;;20.85;15.50;;;18.00;82.70;;;;;;5079672;28;20823;-69
2023/07/02 07:04:04;;;;;;;21.85;15.30;;;18.00;82.10;;;;;;5073400;28;20431;-70
2023/07/02 07:06:31;;;;;;;21.10;15.45;;;18.10;82.10;;;;;;5074040;28;21006;-70
2023/07/02 07:08:57;;;;;;;21.50;16.00;;;18.10;82.00;;;;;;5063471;28;20580;-71
2023/07/02 07:11:24;;;;;;;20.48;15.25;;;18.10;82.90;;;;;;5069364;28;20415;-70
2023/07/02 07:13:51;;;;;;;20.20;15.40;;;18.20;82.10;;;;;;5082707;28;20612;-70
2023/07/02 07:16:18;;;;;;;19.50;15.50;;;18.20;81.30;;;;;;5067104;28;20427;-72
2023/07/02 07:18:45;;;;;;;18.95;14.98;;;18.30;81.00;;;;;;5069611;28;20436;-71
2023/07/02 07:21:13;;;;;;;21.55;16.33;;;18.30;80.80;;;;;;5073326;28;20854;-69
2023/07/02 07:23:40;;;;;;;22.02;15.50;;;18.40;81.30;;;;;;5066050;28;20431;-69
2023/07/02 07:26:07;;;;;;;19.40;15.73;;;18.40;79.20;;;;;;5061780;28;20439;-70
2023/07/02 07:28:34;;;;;;;18.10;15.15;;;18.50;80.20;;;;;;5082288;28;20426;-70
2023/07/02 07:31:00;;;;;;;18.90;14.98;;;18.50;79.00;;;;;;5068544;28;20898;-69
2023/07/02 07:33:27;;;;;;;20.48;15.07;;;18.60;79.40;;;;;;5068240;28;20447;-71
2023/07/02 07:35:54;;;;;;;19.80;14.80;;;18.60;77.40;;;;;;5069814;28;20790;-69
2023/07/02 07:38:22;;;;;;;17.98;14.10;;;18.70;78.00;;;;;;5083126;28;20431;-70
2023/07/02 07:40:49;;;;;;;20.27;14.70;;;18.90;74.50;;;;;;5069959;28;20536;-69
2023/07/02 07:43:15;;;;;;;18.38;13.20;;;19.00;73.60;;;;;;5068165;28;20416;-70
2023/07/02 07:45:42;;;;;;;20.17;14.15;;;19.00;72.30;;;;;;5079505;28;20432;-70
2023/07/02 07:48:09;;;;;;;17.60;13.30;;;19.00;72.00;;;;;;5074181;28;20437;-70
2023/07/02 07:50:36;;;;;;;18.33;13.90;;;19.10;70.30;;;;;;5077279;28;20447;-71
2023/07/02 07:53:02;;;;;;;17.27;13.10;;;19.10;70.10;;;;;;5070272;28;20436;-69
2023/07/02 07:55:30;;;;;;;15.52;13.00;;;19.20;69.70;;;;;;5071166;28;20455;-71
2023/07/02 07:57:57;;;;;;;19.20;13.70;;;19.30;69.50;;;;;;5083363;28;20419;-70
2023/07/02 08:00:25;;;;;;;17.67;13.27;;;19.30;69.00;;;;;;5083308;28;20425;-71
2023/07/02 08:02:55;;;;;;;18.00;13.25;;;19.30;69.70;;;;;;5073977;28;20427;-70
2023/07/02 08:05:22;;;;;;;16.92;13.20;;;19.40;69.50;;;;;;5079903;28;20427;-71
2023/07/02 08:07:48;;;;;;;15.40;12.48;;;19.60;69.00;;;;;;5069349;28;20481;-70
2023/07/02 08:10:15;;;;;;;15.32;12.48;;;19.80;66.90;;;;;;5076464;28;20450;-70
2023/07/02 08:12:43;;;;;;;17.40;11.47;;;20.00;65.10;;;;;;5063668;28;20435;-70
2023/07/02 08:15:10;;;;;;;16.40;11.20;;;20.20;62.20;;;;;;5076164;28;20882;-69
2023/07/02 08:17:37;;;;;;;13.67;11.47;;;20.20;60.80;;;;;;5075066;28;20863;-70
2023/07/02 08:20:09;;;;;;;15.95;12.43;;;20.20;61.60;;;;;;5071822;28;20415;-69
2023/07/02 08:22:35;;;;;;;15.65;12.00;;;20.10;62.00;;;;;;5062890;28;20429;-69
2023/07/02 08:25:02;;;;;;;14.50;11.18;;;20.00;63.20;;;;;;5069930;28;20426;-70
2023/07/02 08:27:29;;;;;;;15.40;11.82;;;20.00;61.40;;;;;;5071411;28;20636;-69
2023/07/02 08:29:57;;;;;;;15.43;11.60;;;19.90;60.80;;;;;;5085741;28;20448;-70
2023/07/02 08:32:24;;;;;;;16.70;12.18;;;19.80;62.80;;;;;;5070095;28;20433;-70
2023/07/02 08:34:51;;;;;;;18.52;12.18;;;19.70;63.80;;;;;;5067738;28;20434;-71
2023/07/02 08:37:18;;;;;;;16.52;11.52;;;19.60;64.00;;;;;;5062072;28;20519;-71
2023/07/02 08:39:45;;;;;;;18.20;12.50;;;19.60;65.00;;;;;;5069536;28;20415;-70
2023/07/02 08:42:12;;;;;;;15.18;12.40;;;19.70;64.10;;;;;;5060687;28;20415;-70
2023/07/02 08:44:39;;;;;;;16.63;12.90;;;19.70;64.40;;;;;;5070569;28;20419;-71
2023/07/02 08:47:08;;;;;;;17.30;12.50;;;19.80;64.50;;;;;;5065377;28;20439;-71
2023/07/02 08:49:34;;;;;;;13.82;11.00;;;19.90;61.60;;;;;;5077904;28;20427;-70
2023/07/02 08:52:01;;;;;;;14.30;10.60;;;19.80;60.40;;;;;;5074212;28;20438;-69
2023/07/02 08:54:28;;;;;;;15.45;10.52;;;19.80;59.90;;;;;;5083082;28;20474;-71
2023/07/02 08:56:56;;;;;;;14.27;11.35;;;19.80;60.30;;;;;;5071608;28;20424;-70
2023/07/02 08:59:22;;;;;;;15.75;10.93;;;19.80;61.50;;;;;;5068574;28;20440;-70
2023/07/02 09:01:50;;;;;;;16.42;11.90;;;19.90;61.60;;;;;;5070878;28;20539;-71
2023/07/02 09:04:19;;;;;;;14.55;11.48;;;20.10;61.30;;;;;;5058840;28;20836;-71
2023/07/02 09:06:46;;;;;;;13.88;11.50;;;20.30;58.20;;;;;;5068548;28;20786;-71
2023/07/02 09:09:13;;;;;;;17.15;11.57;;;20.40;56.00;;;;;;5059661;28;20446;-70
2023/07/02 09:11:50;;;;;;;18.08;11.73;;;20.30;58.00;;;;;;5061631;28;20417;-70
2023/07/02 09:14:28;;;;;;;16.05;12.13;;;20.20;58.90;;;;;;5071080;28;20439;-70
2023/07/02 09:17:06;;;;;;;15.90;11.88;;;20.10;59.50;;;;;;5079023;28;20429;-70
2023/07/02 09:19:35;;;;;;;14.73;11.05;;;20.20;59.10;;;;;;5070475;28;20420;-71
2023/07/02 09:22:02;;;;;;;16.70;11.75;;;20.20;58.20;;;;;;5065997;28;20432;-71
2023/07/02 09:24:31;;;;;;;15.70;12.43;;;20.20;59.70;;;;;;5057785;28;20421;-71
2023/07/02 09:26:59;;;;;;;15.80;12.07;;;20.30;59.80;;;;;;5069995;28;20416;-70
2023/07/02 09:29:28;;;;;;;17.80;12.43;;;20.30;60.60;;;;;;5070536;28;20440;-71
2023/07/02 09:31:55;;;;;;;15.30;11.73;;;20.40;60.00;;;;;;5071004;28;20428;-71
2023/07/02 09:34:28;;;;;;;17.55;12.63;;;20.60;59.50;;;;;;5069606;28;20455;-71
2023/07/02 09:36:56;;;;;;;17.25;13.27;;;20.60;59.40;;;;;;5068161;28;20473;-71
2023/07/02 09:39:27;;;;;;;15.75;12.55;;;20.60;59.30;;;;;;5079651;28;20414;-71
2023/07/02 09:41:57;;;;;;;15.50;12.75;;;20.60;59.50;;;;;;5073605;28;20781;-70
2023/07/02 09:44:28;;;;;;;15.00;12.77;;;20.60;60.20;;;;;;5076430;28;20459;-72
2023/07/02 09:47:03;;;;;;;14.67;12.23;;;20.50;59.90;;;;;;5097745;28;20419;-72
2023/07/02 09:49:32;;;;;;;16.83;13.00;;;20.40;60.40;;;;;;5073501;28;20431;-70
2023/07/02 09:52:03;;;;;;;17.90;13.32;;;20.50;60.70;;;;;;5079054;28;20788;-71
2023/07/02 09:54:30;;;;;;;15.75;12.73;;;20.60;59.50;;;;;;5073610;28;20428;-70
2023/07/02 09:56:57;;;;;;;17.70;13.90;;;20.60;60.10;;;;;;5068096;28;20423;-71
2023/07/02 09:59:23;;;;;;;18.20;13.60;;;20.50;60.70;;;;;;5070878;28;20899;-71
2023/07/02 10:01:50;;;;;;;17.63;13.10;;;20.70;59.80;;;;;;5071678;28;20428;-71
2023/07/02 10:04:19;;;;;;;16.58;13.15;;;20.60;59.80;;;;;;5064644;28;20423;-71
2023/07/02 10:06:48;;;;;;;17.85;14.10;;;20.80;59.50;;;;;;5062171;28;20427;-71
2023/07/02 10:09:16;;;;;;;20.17;13.23;;;21.10;58.30;;;;;;5070512;28;20431;-70
2023/07/02 10:11:43;;;;;;;16.20;13.00;;;21.40;59.20;;;;;;5069188;28;20450;-73
2023/07/02 10:14:10;;;;;;;17.27;12.55;;;21.60;56.50;;;;;;5070140;28;20784;-71
2023/07/02 10:16:50;;;;;;;15.05;12.70;;;21.70;53.90;;;;;;5059800;28;20461;-71
2023/07/02 10:19:17;;;;;;;14.02;11.85;;;21.70;53.60;;;;;;5067664;28;20477;-71
2023/07/02 10:21:45;;;;;;;14.55;12.20;;;21.70;54.20;;;;;;5061470;28;20417;-71
2023/07/02 10:24:13;;;;;;;14.98;12.43;;;21.70;53.20;;;;;;5084157;28;20428;-71
2023/07/02 10:26:53;;;;;;;16.73;12.68;;;21.50;54.60;;;;;;5067752;28;20428;-71
2023/07/02 10:29:21;;;;;;;16.02;12.32;;;21.40;54.40;;;;;;5071230;28;20413;-71
2023/07/02 10:31:49;;;;;;;15.63;11.95;;;21.30;54.50;;;;;;5072724;28;20423;-72
2023/07/02 10:34:16;;;;;;;14.90;11.00;;;21.30;54.60;;;;;;5084753;28;20473;-69
2023/07/02 10:36:43;;;;;;;13.40;11.73;;;21.30;53.10;;;;;;5072857;28;20423;-68
2023/07/02 10:39:10;;;;;;;14.02;10.50;;;21.20;52.80;;;;;;5072744;28;20411;-68
2023/07/02 10:41:37;;;;;;;14.50;10.73;;;21.40;51.40;;;;;;5070767;28;20443;-70
2023/07/02 10:44:09;;;;;;;15.23;11.25;;;21.50;50.10;;;;;;5063135;28;20427;-69
2023/07/02 10:46:36;;;;;;;15.55;12.50;;;21.40;51.10;;;;;;5066306;28;20427;-69
2023/07/02 10:49:02;;;;;;;13.40;11.02;;;21.20;52.40;;;;;;5056539;28;20858;-69
2023/07/02 10:51:29;;;;;;;14.80;11.77;;;20.90;53.80;;;;;;5066105;28;20415;-69
2023/07/02 10:53:59;;;;;;;13.50;11.32;;;20.80;55.20;;;;;;5061854;28;21049;-68
2023/07/02 10:56:27;;;;;;;14.73;11.30;;;20.60;56.50;;;;;;5072547;28;20425;-68
2023/07/02 10:58:54;;;;;;;15.13;11.97;;;20.60;57.70;;;;;;5068931;28;21151;-68
2023/07/02 11:01:27;;;;;;;14.60;12.00;;;20.60;57.70;;;;;;5069421;28;20433;-68
2023/07/02 11:03:58;;;;;;;15.38;11.52;;;20.70;57.90;;;;;;5054908;28;20417;-68
2023/07/02 11:06:25;;;;;;;14.68;11.40;;;20.80;57.00;;;;;;5070519;28;20487;-68
2023/07/02 11:08:52;;;;;;;14.77;11.10;;;20.90;56.60;;;;;;5082144;28;20446;-68
2023/07/02 11:11:19;;;;;;;12.80;11.27;;;21.00;55.80;;;;;;5069703;28;20422;-67
2023/07/02 11:13:47;;;;;;;14.02;11.80;;;21.10;55.00;;;;;;5075736;28;20562;-68
2023/07/02 11:16:28;;;;;;;14.02;10.35;;;21.10;54.20;;;;;;5078069;28;20422;-68
2023/07/02 11:18:55;;;;;;;14.98;10.95;;;21.10;52.90;;;;;;5066623;28;20427;-68
2023/07/02 11:21:22;;;;;;;13.60;11.43;;;21.10;52.10;;;;;;5062652;28;20671;-67
2023/07/02 11:23:49;;;;;;;16.35;11.60;;;21.20;53.40;;;;;;5068695;28;20426;-67
2023/07/02 11:26:15;;;;;;;14.02;11.00;;;21.40;50.60;;;;;;5081083;28;20433;-68
2023/07/02 11:28:51;;;;;;;13.75;11.18;;;21.70;51.40;;;;;;5076417;28;20413;-68
2023/07/02 11:31:27;;;;;;;14.88;11.35;;;22.00;49.60;;;;;;5082103;28;21020;-69
2023/07/02 11:33:54;;;;;;;14.95;11.07;;;22.30;48.30;;;;;;5066332;28;20429;-68
2023/07/02 11:36:23;;;;;;;13.13;11.18;;;22.10;49.70;;;;;;5075663;28;20927;-68
2023/07/02 11:38:51;;;;;;;14.07;10.90;;;22.20;49.80;;;;;;5062631;28;20461;-68
2023/07/02 11:41:18;;;;;;;14.52;11.57;;;22.20;48.50;;;;;;5055413;28;20471;-68
2023/07/02 11:43:45;;;;;;;13.45;11.48;;;22.40;48.90;;;;;;5066751;28;20930;-69
2023/07/02 11:46:11;;;;;;;13.15;11.07;;;22.50;48.20;;;;;;5067792;28;20420;-68
2023/07/02 11:48:39;;;;;;;15.35;11.50;;;22.40;48.60;;;;;;5062872;28;20439;-70
2023/07/02 11:51:06;;;;;;;13.88;11.30;;;22.40;49.10;;;;;;5065253;28;20419;-70
2023/07/02 11:53:33;;;;;;;14.33;12.17;;;22.30;48.90;;;;;;5067650;28;20421;-70
2023/07/02 11:55:59;;;;;;;13.32;10.50;;;22.10;49.50;;;;;;5071079;28;20443;-70
2023/07/02 11:58:26;;;;;;;15.43;10.63;;;22.00;48.80;;;;;;5066413;28;20423;-71
2023/07/02 12:00:53;;;;;;;12.88;10.32;;;22.40;46.90;;;;;;5068891;28;20431;-70
2023/07/02 12:03:20;;;;;;;15.48;10.80;;;22.50;45.50;;;;;;5066774;28;20440;-70
2023/07/02 12:05:48;;;;;;;12.90;10.20;;;22.40;46.00;;;;;;5066773;28;20435;-75
2023/07/02 12:08:14;;;;;;;15.25;10.07;;;22.20;45.00;;;;;;5069473;28;20442;-70
2023/07/02 12:10:41;;;;;;;10.98;9.48;;;22.00;46.10;;;;;;5069355;28;20465;-72
2023/07/02 12:13:08;;;;;;;11.35;9.82;;;21.90;45.70;;;;;;5068363;28;20481;-70
2023/07/02 12:15:35;;;;;;;14.30;9.50;;;21.90;45.70;;;;;;5068917;28;20427;-70
2023/07/02 12:18:02;;;;;;;12.93;9.85;;;21.90;46.00;;;;;;5066299;28;20427;-68
2023/07/02 12:20:28;;;;;;;12.53;8.93;;;22.00;46.30;;;;;;5067059;28;20411;-70
2023/07/02 12:22:57;;;;;;;11.70;9.38;;;22.20;43.80;;;;;;5059755;28;20810;-70
2023/07/02 12:25:23;;;;;;;9.45;8.13;;;22.50;44.80;;;;;;5067163;28;20431;-71
2023/07/02 12:27:50;;;;;;;8.43;7.20;;;22.60;40.80;;;;;;5066978;28;20933;-69
2023/07/02 12:30:18;;;;;;;10.60;7.60;;;22.60;40.20;;;;;;5070735;28;20429;-70
2023/07/02 12:32:45;;;;;;;12.70;7.60;;;22.40;39.40;;;;;;5076734;28;20806;-69